createdAt,value
2023-09-26T00:00:20.628Z,95304.09
2023-09-26T00:02:48.773Z,95307.19
2023-09-26T00:05:15.622Z,95317.28
2023-09-26T00:07:42.437Z,95312.00
2023-09-26T00:10:12.569Z,95311.50
2023-09-26T00:12:40.049Z,95304.56
2023-09-26T00:15:08.422Z,95307.19
2023-09-26T00:17:38.746Z,95309.84
2023-09-26T00:20:39.391Z,95312.00
2023-09-26T00:23:08.067Z,95304.28
2023-09-26T00:25:35.284Z,95316.03
2023-09-26T00:28:02.001Z,95302.84
2023-09-26T00:30:28.694Z,95310.50
2023-09-26T00:32:55.463Z,95314.81
2023-09-26T00:35:22.892Z,95307.38
2023-09-26T00:37:52.137Z,95307.38
2023-09-26T00:40:23.814Z,95295.19
2023-09-26T00:42:51.454Z,95305.47
2023-09-26T00:45:19.457Z,95304.28
2023-09-26T00:47:46.705Z,95306.41
2023-09-26T00:50:14.422Z,95309.00
2023-09-26T00:52:46.987Z,95301.34
2023-09-26T00:55:17.875Z,95302.53
2023-09-26T00:57:46.715Z,95305.41
2023-09-26T01:00:16.963Z,95294.63
2023-09-26T01:02:44.475Z,95296.28
2023-09-26T01:05:11.715Z,95300.34
2023-09-26T01:07:40.062Z,95305.63
2023-09-26T01:10:11.624Z,95312.78
2023-09-26T01:12:40.153Z,95308.91
2023-09-26T01:15:09.360Z,95305.56
2023-09-26T01:17:36.177Z,95300.78
2023-09-26T01:20:04.339Z,95300.28
2023-09-26T01:22:33.242Z,95297.16
2023-09-26T01:25:00.886Z,95295.44
2023-09-26T01:27:27.667Z,95299.53
2023-09-26T01:29:56.110Z,95292.09
2023-09-26T01:32:24.253Z,95301.22
2023-09-26T01:34:51.058Z,95299.78
2023-09-26T01:37:17.744Z,95291.34
2023-09-26T01:39:44.565Z,95295.91
2023-09-26T01:42:11.307Z,95291.63
2023-09-26T01:44:38.004Z,95296.84
2023-09-26T01:47:05.349Z,95303.75
2023-09-26T01:49:32.646Z,95298.50
2023-09-26T01:51:59.381Z,95301.13
2023-09-26T01:54:26.157Z,95304.72
2023-09-26T01:56:52.760Z,95294.38
2023-09-26T01:59:19.943Z,95301.56
2023-09-26T02:01:47.118Z,95292.91
2023-09-26T02:04:13.921Z,95295.75
2023-09-26T02:06:40.578Z,95291.00
2023-09-26T02:09:10.062Z,95290.47
2023-09-26T02:11:36.663Z,95286.66
2023-09-26T02:14:03.780Z,95291.66
2023-09-26T02:16:31.055Z,95293.31
2023-09-26T02:18:58.435Z,95289.97
2023-09-26T02:21:25.156Z,95290.44
2023-09-26T02:23:52.673Z,95288.75
2023-09-26T02:26:20.047Z,95288.28
2023-09-26T02:28:46.677Z,95287.50
2023-09-26T02:31:17.083Z,95284.44
2023-09-26T02:33:44.778Z,95279.38
2023-09-26T02:36:11.391Z,95275.78
2023-09-26T02:38:38.144Z,95274.81
2023-09-26T02:41:04.917Z,95277.44
2023-09-26T02:43:31.610Z,95265.97
2023-09-26T02:45:58.444Z,95268.34
2023-09-26T02:48:25.169Z,95271.41
2023-09-26T02:50:51.764Z,95268.78
2023-09-26T02:53:19.082Z,95265.44
2023-09-26T02:55:45.710Z,95265.19
2023-09-26T02:58:12.363Z,95263.78
2023-09-26T03:00:42.422Z,95263.72
2023-09-26T03:03:09.104Z,95272.53
2023-09-26T03:05:36.760Z,95264.19
2023-09-26T03:08:03.712Z,95265.84
2023-09-26T03:10:30.833Z,95267.28
2023-09-26T03:12:57.839Z,95260.59
2023-09-26T03:15:24.490Z,95256.25
2023-09-26T03:17:51.088Z,95254.81
2023-09-26T03:20:18.286Z,95251.94
2023-09-26T03:22:45.234Z,95257.66
2023-09-26T03:25:12.456Z,95251.94
2023-09-26T03:27:39.100Z,95255.03
2023-09-26T03:30:06.432Z,95247.63
2023-09-26T03:32:33.054Z,95247.34
2023-09-26T03:34:59.715Z,95255.22
2023-09-26T03:37:26.356Z,95259.97
2023-09-26T03:39:53.073Z,95257.34
2023-09-26T03:42:20.281Z,95258.03
2023-09-26T03:44:47.732Z,95250.41
2023-09-26T03:47:15.065Z,95254.69
2023-09-26T03:49:41.711Z,95253.50
2023-09-26T03:52:08.368Z,95252.06
2023-09-26T03:54:35.863Z,95257.78
2023-09-26T03:57:05.556Z,95252.25
2023-09-26T03:59:32.237Z,95253.44
2023-09-26T04:01:58.918Z,95270.41
2023-09-26T04:04:26.410Z,95270.41
2023-09-26T04:06:53.083Z,95269.88
2023-09-26T04:09:20.171Z,95261.72
2023-09-26T04:11:49.574Z,95267.72
2023-09-26T04:14:16.499Z,95260.31
2023-09-26T04:16:43.129Z,95263.13
2023-09-26T04:19:10.294Z,95265.50
2023-09-26T04:21:37.134Z,95260.97
2023-09-26T04:24:07.376Z,95260.00
2023-09-26T04:26:34.370Z,95254.03
2023-09-26T04:29:00.995Z,95250.41
2023-09-26T04:33:54.580Z,95256.38
2023-09-26T04:36:21.742Z,95252.34
2023-09-26T04:38:49.140Z,95252.06
2023-09-26T04:41:15.857Z,95251.09
2023-09-26T04:43:43.056Z,95256.81
2023-09-26T04:46:13.847Z,95252.75
2023-09-26T04:48:41.386Z,95255.81
2023-09-26T04:51:13.513Z,95253.91
2023-09-26T04:53:40.564Z,95262.97
2023-09-26T04:56:10.549Z,95255.31
2023-09-26T04:58:37.492Z,95253.63
2023-09-26T05:01:15.213Z,95254.50
2023-09-26T05:03:43.473Z,95253.28
2023-09-26T05:06:10.634Z,95253.56
2023-09-26T05:08:38.077Z,95253.28
2023-09-26T05:11:06.312Z,95255.63
2023-09-26T05:13:35.792Z,95260.16
2023-09-26T05:16:02.394Z,95262.56
2023-09-26T05:18:29.055Z,95256.84
2023-09-26T05:20:56.586Z,95269.00
2023-09-26T05:23:23.655Z,95270.91
2023-09-26T05:25:52.380Z,95264.88
2023-09-26T05:28:19.083Z,95270.13
2023-09-26T05:30:46.978Z,95267.50
2023-09-26T05:33:13.616Z,95279.41
2023-09-26T05:35:40.413Z,95274.66
2023-09-26T05:38:07.399Z,95265.50
2023-09-26T05:40:34.487Z,95271.03
2023-09-26T05:43:01.273Z,95265.03
2023-09-26T05:45:27.963Z,95271.03
2023-09-26T05:47:54.546Z,95275.53
2023-09-26T05:50:21.632Z,95268.41
2023-09-26T05:52:48.566Z,95267.72
2023-09-26T05:55:15.397Z,95265.31
2023-09-26T05:57:41.984Z,95267.50
2023-09-26T06:00:14.554Z,95271.28
2023-09-26T06:02:41.759Z,95275.34
2023-09-26T06:05:08.827Z,95275.53
2023-09-26T06:07:35.628Z,95283.94
2023-09-26T06:10:09.318Z,95272.75
2023-09-26T06:12:36.944Z,95275.59
2023-09-26T06:15:07.714Z,95275.88
2023-09-26T06:17:35.072Z,95279.66
2023-09-26T06:20:02.361Z,95284.72
2023-09-26T06:22:29.505Z,95279.03
2023-09-26T06:24:59.855Z,95278.28
2023-09-26T06:27:27.338Z,95276.63
2023-09-26T06:29:54.174Z,95280.25
2023-09-26T06:32:20.817Z,95284.31
2023-09-26T06:34:50.490Z,95282.41
2023-09-26T06:37:18.809Z,95277.44
2023-09-26T06:39:45.536Z,95279.13
2023-09-26T06:42:12.167Z,95282.28
2023-09-26T06:44:38.935Z,95271.31
2023-09-26T06:47:05.652Z,95275.66
2023-09-26T06:49:34.392Z,95272.09
2023-09-26T06:52:01.345Z,95273.06
2023-09-26T06:54:27.986Z,95276.94
2023-09-26T06:56:54.544Z,95274.81
2023-09-26T06:59:21.885Z,95273.91
2023-09-26T07:01:48.507Z,95273.69
2023-09-26T07:04:15.897Z,95278.00
2023-09-26T07:06:42.984Z,95279.97
2023-09-26T07:09:09.729Z,95278.34
2023-09-26T07:11:36.317Z,95275.47
2023-09-26T07:14:03.590Z,95271.94
2023-09-26T07:16:34.635Z,95277.69
2023-09-26T07:19:02.256Z,95282.03
2023-09-26T07:21:28.945Z,95279.91
2023-09-26T07:23:55.892Z,95278.97
2023-09-26T07:26:23.408Z,95282.09
2023-09-26T07:28:51.435Z,95287.16
2023-09-26T07:31:19.758Z,95289.81
2023-09-26T07:33:46.847Z,95290.34
2023-09-26T07:36:13.923Z,95288.22
2023-09-26T07:38:40.733Z,95294.22
2023-09-26T07:41:07.662Z,95291.66
2023-09-26T07:43:34.876Z,95300.75
2023-09-26T07:46:08.537Z,95300.25
2023-09-26T07:48:35.955Z,95284.75
2023-09-26T07:51:03.466Z,95294.38
2023-09-26T07:53:30.120Z,95290.31
2023-09-26T07:55:59.536Z,95297.06
2023-09-26T07:58:29.502Z,95301.88
2023-09-26T08:01:02.310Z,95293.34
2023-09-26T08:03:29.198Z,95302.63
2023-09-26T08:06:03.506Z,95304.56
2023-09-26T08:08:30.740Z,95301.47
2023-09-26T08:11:00.446Z,95301.97
2023-09-26T08:13:27.183Z,95297.47
2023-09-26T08:15:54.259Z,95296.28
2023-09-26T08:18:21.788Z,95298.69
2023-09-26T08:20:48.635Z,95296.31
2023-09-26T08:23:15.400Z,95301.59
2023-09-26T08:25:42.021Z,95295.91
2023-09-26T08:28:08.685Z,95304.28
2023-09-26T08:30:35.434Z,95309.09
2023-09-26T08:33:02.349Z,95310.03
2023-09-26T08:35:29.104Z,95307.19
2023-09-26T08:37:56.458Z,95305.03
2023-09-26T08:40:28.303Z,95299.09
2023-09-26T08:42:59.219Z,95300.53
2023-09-26T08:45:27.075Z,95301.94
2023-09-26T08:47:56.000Z,95297.16
2023-09-26T08:50:23.737Z,95301.97
2023-09-26T08:52:53.569Z,95296.00
2023-09-26T08:55:22.035Z,95299.81
2023-09-26T08:57:50.286Z,95290.97
2023-09-26T09:00:18.758Z,95295.94
2023-09-26T09:02:45.397Z,95292.13
2023-09-26T09:05:12.066Z,95292.84
2023-09-26T09:07:41.032Z,95284.66
2023-09-26T09:10:08.840Z,95288.97
2023-09-26T09:12:38.912Z,95281.75
2023-09-26T09:15:18.886Z,95281.47
2023-09-26T09:17:53.550Z,95281.47
2023-09-26T09:20:34.625Z,95285.03
2023-09-26T09:23:01.639Z,95280.94
2023-09-26T09:25:36.538Z,95282.84
2023-09-26T09:28:05.635Z,95282.59
2023-09-26T09:30:43.664Z,95270.28
2023-09-26T09:33:13.191Z,95270.50
2023-09-26T09:35:40.021Z,95269.28
2023-09-26T09:38:14.383Z,95277.59
2023-09-26T09:40:41.477Z,95272.28
2023-09-26T09:43:08.368Z,95268.44
2023-09-26T09:45:38.095Z,95271.06
2023-09-26T09:48:09.266Z,95266.50
2023-09-26T09:50:39.917Z,95267.91
2023-09-26T09:53:07.824Z,95264.94
2023-09-26T09:55:39.696Z,95263.69
2023-09-26T09:58:13.747Z,95259.56
2023-09-26T10:00:41.891Z,95260.72
2023-09-26T10:03:09.379Z,95261.41
2023-09-26T10:05:36.342Z,95262.31
2023-09-26T10:08:05.305Z,95259.06
2023-09-26T10:10:33.300Z,95258.03
2023-09-26T10:15:34.741Z,95256.50
2023-09-26T10:18:03.410Z,95257.16
2023-09-26T10:20:49.568Z,95258.00
2023-09-26T10:23:16.837Z,95254.28
2023-09-26T10:25:43.502Z,95261.44
2023-09-26T10:28:10.164Z,95252.44
2023-09-26T10:30:46.426Z,95253.72
2023-09-26T10:33:27.948Z,95256.56
2023-09-26T10:36:05.683Z,95255.00
2023-09-26T10:38:32.740Z,95254.16
2023-09-26T10:40:59.829Z,95250.00
2023-09-26T10:46:15.908Z,95244.84
2023-09-26T10:48:42.711Z,95250.25
2023-09-26T10:51:09.355Z,95245.81
2023-09-26T10:53:36.346Z,95244.53
2023-09-26T10:56:04.371Z,95246.59
2023-09-26T10:58:34.826Z,95246.25
2023-09-26T11:01:01.897Z,95238.97
2023-09-26T11:03:31.560Z,95239.69
2023-09-26T11:08:45.909Z,95236.38
2023-09-26T11:11:13.469Z,95239.63
2023-09-26T11:13:40.885Z,95235.97
2023-09-26T11:16:07.873Z,95228.84
2023-09-26T11:18:34.760Z,95231.19
2023-09-26T11:21:09.633Z,95227.38
2023-09-26T11:23:44.268Z,95225.22
2023-09-26T11:26:10.915Z,95220.06
2023-09-26T11:28:37.908Z,95220.47
2023-09-26T11:31:05.130Z,95222.78
2023-09-26T11:33:33.166Z,95219.19
2023-09-26T11:36:00.081Z,95210.41
2023-09-26T11:38:26.820Z,95219.41
2023-09-26T11:40:55.161Z,95220.91
2023-09-26T11:43:21.990Z,95210.72
2023-09-26T11:45:48.974Z,95210.28
2023-09-26T11:48:15.641Z,95214.06
2023-09-26T11:50:42.321Z,95209.84
2023-09-26T11:53:10.322Z,95206.28
2023-09-26T11:55:37.143Z,95206.19
2023-09-26T11:58:04.275Z,95204.84
2023-09-26T12:00:31.366Z,95210.06
2023-09-26T12:02:58.586Z,95206.81
2023-09-26T12:05:25.600Z,95197.16
2023-09-26T12:07:53.127Z,95196.47
2023-09-26T12:10:21.224Z,95196.47
2023-09-26T12:12:48.119Z,95193.50
2023-09-26T12:15:22.137Z,95192.53
2023-09-26T12:17:50.554Z,95198.06
2023-09-26T12:20:26.791Z,95192.44
2023-09-26T12:22:55.090Z,95188.19
2023-09-26T12:25:24.257Z,95187.16
2023-09-26T12:27:54.823Z,95187.50
2023-09-26T12:30:21.947Z,95185.28
2023-09-26T12:32:50.929Z,95191.50
2023-09-26T12:35:18.590Z,95185.16
2023-09-26T12:37:47.230Z,95184.47
2023-09-26T12:40:14.510Z,95178.09
2023-09-26T12:42:42.447Z,95190.00
2023-09-26T12:45:10.349Z,95190.00
2023-09-26T12:47:37.611Z,95183.47
2023-09-26T12:50:10.700Z,95175.63
2023-09-26T12:52:39.698Z,95182.97
2023-09-26T12:55:09.611Z,95178.13
2023-09-26T12:57:37.049Z,95176.91
2023-09-26T13:00:13.400Z,95170.72
2023-09-26T13:02:41.424Z,95171.44
2023-09-26T13:05:08.859Z,95173.91
2023-09-26T13:07:35.591Z,95169.47
2023-09-26T13:10:02.599Z,95172.13
2023-09-26T13:12:29.457Z,95166.63
2023-09-26T13:14:57.312Z,95163.59
2023-09-26T13:17:24.189Z,95159.69
2023-09-26T13:19:50.944Z,95160.06
2023-09-26T13:22:17.594Z,95163.94
2023-09-26T13:24:44.280Z,95151.66
2023-09-26T13:27:11.067Z,95150.22
2023-09-26T13:32:04.949Z,95147.16
2023-09-26T13:34:32.076Z,95148.72
2023-09-26T13:36:58.929Z,95153.00
2023-09-26T13:39:26.296Z,95146.28
2023-09-26T13:41:54.262Z,95144.28
2023-09-26T13:44:20.966Z,95139.97
2023-09-26T13:46:50.795Z,95139.41
2023-09-26T13:49:17.632Z,95135.84
2023-09-26T13:51:44.346Z,95138.13
2023-09-26T13:54:13.686Z,95148.25
2023-09-26T13:56:40.453Z,95137.91
2023-09-26T13:59:07.293Z,95137.06
2023-09-26T14:01:35.729Z,95140.06
2023-09-26T14:04:02.595Z,95146.22
2023-09-26T14:06:29.454Z,95137.13
2023-09-26T14:08:56.262Z,95140.28
2023-09-26T14:11:24.092Z,95138.97
2023-09-26T14:13:50.736Z,95140.56
2023-09-26T14:16:17.476Z,95139.44
2023-09-26T14:18:44.213Z,95140.88
2023-09-26T14:21:15.437Z,95140.88
2023-09-26T14:23:43.355Z,95144.22
2023-09-26T14:26:11.458Z,95141.34
2023-09-26T14:28:45.150Z,95140.97
2023-09-26T14:31:12.535Z,95144.09
2023-09-26T14:33:41.490Z,95137.50
2023-09-26T14:36:08.383Z,95136.97
2023-09-26T14:38:35.159Z,95137.84
2023-09-26T14:41:01.782Z,95136.16
2023-09-26T14:43:28.513Z,95134.84
2023-09-26T14:45:55.357Z,95145.84
2023-09-26T14:48:22.298Z,95141.91
2023-09-26T14:50:50.372Z,95141.69
2023-09-26T14:53:17.406Z,95143.19
2023-09-26T14:55:44.078Z,95138.63
2023-09-26T14:58:10.741Z,95144.75
2023-09-26T15:00:43.063Z,95143.25
2023-09-26T15:03:10.647Z,95143.97
2023-09-26T15:05:38.490Z,95142.59
2023-09-26T15:08:06.006Z,95147.41
2023-09-26T15:10:32.903Z,95138.63
2023-09-26T15:12:59.601Z,95151.91
2023-09-26T15:15:30.777Z,95139.66
2023-09-26T15:17:57.756Z,95141.59
2023-09-26T15:20:24.546Z,95138.91
2023-09-26T15:22:51.501Z,95132.38
2023-09-26T15:25:18.309Z,95141.22
2023-09-26T15:27:45.165Z,95148.84
2023-09-26T15:30:12.590Z,95139.56
2023-09-26T15:32:39.433Z,95135.50
2023-09-26T15:35:06.968Z,95138.28
2023-09-26T15:37:33.771Z,95143.72
2023-09-26T15:40:01.627Z,95142.41
2023-09-26T15:42:28.705Z,95138.81
2023-09-26T15:44:56.531Z,95140.41
2023-09-26T15:47:24.753Z,95148.72
2023-09-26T15:49:51.689Z,95143.91
2023-09-26T15:52:19.060Z,95139.28
2023-09-26T15:54:46.087Z,95152.09
2023-09-26T15:57:12.707Z,95145.34
2023-09-26T15:59:39.995Z,95136.59
2023-09-26T16:02:09.466Z,95139.09
2023-09-26T16:04:36.936Z,95147.50
2023-09-26T16:07:04.414Z,95149.31
2023-09-26T16:09:31.542Z,95136.50
2023-09-26T16:11:58.200Z,95147.03
2023-09-26T16:14:24.854Z,95151.53
2023-09-26T16:16:51.791Z,95151.34
2023-09-26T16:19:19.015Z,95151.19
2023-09-26T16:21:45.993Z,95153.69
2023-09-26T16:24:13.029Z,95146.75
2023-09-26T16:26:39.916Z,95149.97
2023-09-26T16:29:07.221Z,95155.19
2023-09-26T16:31:34.610Z,95155.69
2023-09-26T16:34:01.423Z,95163.56
2023-09-26T16:36:28.113Z,95153.44
2023-09-26T16:38:54.846Z,95157.88
2023-09-26T16:41:21.929Z,95153.66
2023-09-26T16:43:48.785Z,95158.09
2023-09-26T16:46:15.580Z,95163.81
2023-09-26T16:48:42.452Z,95157.63
2023-09-26T16:51:09.510Z,95166.00
2023-09-26T16:53:39.943Z,95161.75
2023-09-26T16:56:07.040Z,95170.16
2023-09-26T16:58:33.865Z,95168.38
2023-09-26T17:01:13.351Z,95172.69
2023-09-26T17:03:40.454Z,95168.25
2023-09-26T17:06:07.750Z,95174.34
2023-09-26T17:08:34.634Z,95171.53
2023-09-26T17:11:01.519Z,95165.66
2023-09-26T17:13:28.565Z,95175.28
2023-09-26T17:15:57.849Z,95170.88
2023-09-26T17:18:24.804Z,95182.44
2023-09-26T17:20:55.271Z,95179.97
2023-09-26T17:23:22.684Z,95182.84
2023-09-26T17:25:49.371Z,95187.84
2023-09-26T17:28:16.071Z,95184.31
2023-09-26T17:30:42.685Z,95186.97
2023-09-26T17:33:09.791Z,95186.81
2023-09-26T17:35:37.231Z,95190.41
2023-09-26T17:38:04.404Z,95191.28
2023-09-26T17:40:31.223Z,95188.47
2023-09-26T17:42:58.951Z,95192.03
2023-09-26T17:45:25.653Z,95193.63
2023-09-26T17:47:52.612Z,95189.16
2023-09-26T17:50:19.336Z,95199.47
2023-09-26T17:52:49.226Z,95198.44
2023-09-26T17:55:15.883Z,95204.47
2023-09-26T17:57:42.497Z,95213.34
2023-09-26T18:00:09.751Z,95205.34
2023-09-26T18:02:37.359Z,95210.88
2023-09-26T18:05:04.326Z,95207.66
2023-09-26T18:07:30.966Z,95216.53
2023-09-26T18:10:00.785Z,95222.75
2023-09-26T18:12:27.573Z,95221.50
2023-09-26T18:14:54.422Z,95219.00
2023-09-26T18:17:21.246Z,95221.09
2023-09-26T18:19:48.055Z,95220.56
2023-09-26T18:22:14.841Z,95224.09
2023-09-26T18:24:42.154Z,95220.88
2023-09-26T18:27:11.796Z,95222.28
2023-09-26T18:29:38.457Z,95225.25
2023-09-26T18:32:05.386Z,95226.66
2023-09-26T18:34:32.156Z,95236.94
2023-09-26T18:36:58.823Z,95237.09
2023-09-26T18:39:25.531Z,95239.38
2023-09-26T18:41:52.135Z,95237.56
2023-09-26T18:44:18.966Z,95245.00
2023-09-26T18:46:45.977Z,95243.38
2023-09-26T18:49:12.641Z,95248.16
2023-09-26T18:51:39.205Z,95239.81
2023-09-26T18:54:06.248Z,95244.03
2023-09-26T18:56:32.935Z,95248.97
2023-09-26T18:58:59.685Z,95243.75
2023-09-26T19:01:27.441Z,95247.28
2023-09-26T19:03:54.648Z,95249.38
2023-09-26T19:06:21.562Z,95248.81
2023-09-26T19:08:48.338Z,95254.94
2023-09-26T19:11:15.635Z,95257.03
2023-09-26T19:13:42.504Z,95261.78
2023-09-26T19:16:09.306Z,95261.41
2023-09-26T19:18:39.372Z,95258.16
2023-09-26T19:21:11.019Z,95258.28
2023-09-26T19:23:37.710Z,95263.50
2023-09-26T19:26:05.242Z,95265.78
2023-09-26T19:28:32.013Z,95259.38
2023-09-26T19:30:58.763Z,95267.97
2023-09-26T19:33:25.794Z,95274.63
2023-09-26T19:35:53.062Z,95270.38
2023-09-26T19:38:19.724Z,95268.53
2023-09-26T19:40:46.405Z,95270.97
2023-09-26T19:43:13.451Z,95274.47
2023-09-26T19:45:40.158Z,95271.94
2023-09-26T19:48:07.360Z,95268.16
2023-09-26T19:50:34.121Z,95270.41
2023-09-26T19:53:00.844Z,95271.44
2023-09-26T19:55:30.525Z,95273.72
2023-09-26T19:57:58.485Z,95268.50
2023-09-26T20:00:25.152Z,95262.06
2023-09-26T20:02:52.619Z,95261.66
2023-09-26T20:05:19.487Z,95266.56
2023-09-26T20:07:46.110Z,95262.09
2023-09-26T20:10:12.857Z,95262.38
2023-09-26T20:12:39.784Z,95258.59
2023-09-26T20:15:18.580Z,95263.50
2023-09-26T20:17:50.100Z,95271.56
2023-09-26T20:20:16.807Z,95260.06
2023-09-26T20:22:43.578Z,95272.19
2023-09-26T20:25:11.753Z,95271.78
2023-09-26T20:27:38.759Z,95276.16
2023-09-26T20:30:06.104Z,95271.66
2023-09-26T20:32:32.772Z,95269.81
2023-09-26T20:34:59.453Z,95261.25
2023-09-26T20:37:27.076Z,95261.75
2023-09-26T20:39:55.292Z,95266.13
2023-09-26T20:42:22.345Z,95270.31
2023-09-26T20:44:49.556Z,95265.31
2023-09-26T20:47:16.451Z,95269.00
2023-09-26T20:49:43.301Z,95275.97
2023-09-26T20:52:09.960Z,95271.72
2023-09-26T20:54:36.618Z,95278.06
2023-09-26T20:57:03.243Z,95271.06
2023-09-26T20:59:29.885Z,95277.91
2023-09-26T21:01:56.547Z,95274.59
2023-09-26T21:04:23.209Z,95282.56
2023-09-26T21:06:53.128Z,95277.56
2023-09-26T21:09:20.985Z,95280.28
2023-09-26T21:11:47.607Z,95281.50
2023-09-26T21:14:14.260Z,95281.81
2023-09-26T21:16:40.887Z,95286.19
2023-09-26T21:19:07.581Z,95289.63
2023-09-26T21:21:34.488Z,95286.06
2023-09-26T21:24:01.601Z,95280.34
2023-09-26T21:26:28.361Z,95280.81
2023-09-26T21:28:55.391Z,95279.91
2023-09-26T21:31:22.380Z,95279.47
2023-09-26T21:33:49.880Z,95289.38
2023-09-26T21:36:16.740Z,95274.47
2023-09-26T21:38:43.471Z,95273.31
2023-09-26T21:41:10.236Z,95272.41
2023-09-26T21:43:37.697Z,95274.59
2023-09-26T21:46:04.816Z,95270.09
2023-09-26T21:48:31.664Z,95276.41
2023-09-26T21:50:58.511Z,95280.75
2023-09-26T21:53:28.244Z,95289.94
2023-09-26T21:55:54.942Z,95286.81
2023-09-26T21:58:21.696Z,95285.91
2023-09-26T22:00:49.074Z,95283.78
2023-09-26T22:03:16.031Z,95288.13
2023-09-26T22:05:42.747Z,95280.97
2023-09-26T22:08:09.847Z,95280.53
2023-09-26T22:10:36.616Z,95273.81
2023-09-26T22:13:03.322Z,95268.34
2023-09-26T22:15:30.024Z,95267.16
2023-09-26T22:17:58.500Z,95271.50
2023-09-26T22:20:25.482Z,95275.88
2023-09-26T22:22:52.306Z,95271.13
2023-09-26T22:25:19.021Z,95270.41
2023-09-26T22:27:45.724Z,95269.97
2023-09-26T22:30:12.784Z,95274.06
2023-09-26T22:32:42.538Z,95271.69
2023-09-26T22:35:09.822Z,95275.31
2023-09-26T22:37:36.877Z,95272.25
2023-09-26T22:40:04.476Z,95264.78
2023-09-26T22:42:31.155Z,95262.66
2023-09-26T22:44:57.922Z,95262.94
2023-09-26T22:47:25.317Z,95267.78
2023-09-26T22:49:52.390Z,95257.69
2023-09-26T22:52:19.834Z,95253.41
2023-09-26T22:54:47.545Z,95252.47
2023-09-26T22:57:14.300Z,95266.88
2023-09-26T22:59:41.018Z,95263.31
2023-09-26T23:02:08.049Z,95262.38
2023-09-26T23:04:35.484Z,95258.81
2023-09-26T23:10:42.839Z,95257.91
2023-09-26T23:13:09.810Z,95255.03
2023-09-26T23:15:36.593Z,95252.91
2023-09-26T23:18:03.451Z,95259.88
2023-09-26T23:20:30.167Z,95253.66
2023-09-26T23:22:57.006Z,95250.78
2023-09-26T23:25:23.816Z,95256.59
2023-09-26T23:27:50.792Z,95259.94
2023-09-26T23:30:17.472Z,95261.19
2023-09-26T23:32:44.381Z,95267.69
2023-09-26T23:35:15.674Z,95265.31
2023-09-26T23:37:42.404Z,95265.56
2023-09-26T23:40:11.199Z,95262.22
2023-09-26T23:42:38.243Z,95267.28
2023-09-26T23:45:05.839Z,95256.25
2023-09-26T23:47:33.180Z,95262.78
2023-09-26T23:50:00.577Z,95255.09
2023-09-26T23:52:27.286Z,95264.72
2023-09-26T23:54:53.906Z,95260.41
2023-09-26T23:57:20.564Z,95256.84
2023-09-26T23:59:47.253Z,95254.69
